Time;durP1;ratioP1;P1;durP2;ratioP2;P2;SDS_P1;SDS_P2;PMS_P1;PMS_P2;Temp;Humidity;BMP_temperature;BMP_pressure;BME280_temperature;BME280_humidity;BME280_pressure;Samples;Min_cycle;Max_cycle;Signal;HPM_P1;HPM_P2
2022/05/22 00:00:30;;;;;;;10.70;4.70;;;;;;;12.60;81.32;101756.53;4996259;28;20390;-85
2022/05/22 00:02:55;;;;;;;9.13;4.10;;;;;;;12.68;82.44;101777.28;4979088;28;20288;-85
2022/05/22 00:05:31;;;;;;;12.63;4.50;;;;;;;12.56;82.01;101751.69;4996168;28;20036;-85
2022/05/22 00:07:56;;;;;;;12.48;4.93;;;;;;;12.61;82.37;101758.22;4996121;28;20026;-85
2022/05/22 00:10:22;;;;;;;10.37;4.50;;;;;;;12.55;82.36;101742.72;5012388;28;20133;-85
2022/05/22 00:12:47;;;;;;;10.75;5.20;;;;;;;12.64;82.21;101752.34;4996158;28;20069;-86
2022/05/22 00:15:17;;;;;;;14.20;5.17;;;;;;;12.59;82.43;101738.53;5013399;28;20058;-86
2022/05/22 00:17:43;;;;;;;14.75;5.43;;;;;;;12.62;82.77;101746.28;4996150;28;20088;-86
2022/05/22 00:20:10;;;;;;;12.80;5.82;;;;;;;12.66;82.76;101743.97;4996042;28;20034;-85
2022/05/22 00:22:35;;;;;;;13.87;4.57;;;;;;;12.70;82.83;101739.78;4995854;28;20033;-85
2022/05/22 00:25:01;;;;;;;13.15;5.45;;;;;;;12.80;82.52;101751.13;4996065;28;20036;-85
2022/05/22 00:27:29;;;;;;;11.70;4.80;;;;;;;12.77;83.43;101734.34;4996272;28;20117;-85
2022/05/22 00:29:55;;;;;;;13.95;4.80;;;;;;;12.79;81.63;101735.00;4996322;28;20040;-85
2022/05/22 00:32:23;;;;;;;13.47;5.33;;;;;;;12.86;81.80;101732.25;4995648;28;20390;-85
2022/05/22 00:34:51;;;;;;;13.52;5.25;;;;;;;12.98;79.73;101744.22;5012193;28;20050;-85
2022/05/22 00:37:16;;;;;;;13.00;5.20;;;;;;;12.92;78.90;101740.44;4996145;28;20069;-85
2022/05/22 00:39:43;;;;;;;16.90;5.40;;;;;;;12.96;79.80;101741.69;5013284;28;20033;-85
2022/05/22 00:42:19;;;;;;;11.45;5.10;;;;;;;12.97;78.88;101737.09;5013456;28;20108;-86
2022/05/22 00:44:48;;;;;;;12.77;5.38;;;;;;;13.02;78.54;101731.84;5013624;28;20030;-85
2022/05/22 00:47:14;;;;;;;12.75;4.97;;;;;;;13.02;78.39;101717.38;4995822;28;20051;-85
2022/05/22 00:49:43;;;;;;;12.50;5.20;;;;;;;13.09;77.63;101727.22;4996081;28;20045;-85
2022/05/22 00:52:19;;;;;;;13.70;5.50;;;;;;;13.16;77.71;101727.22;4995771;28;20460;-85
2022/05/22 00:55:12;;;;;;;14.02;5.20;;;;;;;13.12;78.02;101729.53;4996088;28;20116;-85
2022/05/22 00:57:50;;;;;;;10.60;5.05;;;;;;;13.16;78.26;101730.78;4994938;28;20044;-86
2022/05/22 01:00:22;;;;;;;19.30;5.40;;;;;;;13.06;78.11;101707.75;4999290;28;20045;-85
2022/05/22 01:05:35;;;;;;;12.83;5.07;;;;;;;13.03;77.91;101716.34;5017541;28;20068;-85
2022/05/22 01:08:02;;;;;;;17.00;5.57;;;;;;;12.97;78.09;101712.56;4982843;28;20030;-85
2022/05/22 01:10:36;;;;;;;14.70;5.80;;;;;;;12.94;78.07;101723.88;5016497;28;20030;-85
2022/05/22 01:13:03;;;;;;;19.27;5.13;;;;;;;12.88;78.94;101728.28;4999942;28;20065;-85
2022/05/22 01:15:31;;;;;;;16.17;5.85;;;;;;;12.78;79.34;101717.81;4999185;28;20034;-85
2022/05/22 01:17:59;;;;;;;18.93;5.63;;;;;;;12.74;79.84;101730.16;4999036;28;20110;-85
2022/05/22 01:20:27;;;;;;;17.20;5.43;;;;;;;12.68;79.52;101725.56;4998989;28;20029;-85
2022/05/22 01:23:00;;;;;;;17.50;5.35;;;;;;;12.66;81.04;101726.81;4982464;28;20037;-85
2022/05/22 01:25:35;;;;;;;10.85;5.32;;;;;;;12.61;81.30;101730.16;4999529;28;20065;-85
2022/05/22 01:28:02;;;;;;;13.68;5.35;;;;;;;12.46;81.14;101706.69;5016303;28;20026;-85
2022/05/22 01:30:28;;;;;;;16.43;5.67;;;;;;;12.48;81.72;101692.03;4998770;28;20034;-85
2022/05/22 01:32:55;;;;;;;20.95;6.15;;;;;;;12.50;81.35;101700.81;4996629;28;20070;-85
2022/05/22 01:35:25;;;;;;;17.77;5.68;;;;;;;12.44;81.23;101695.13;5016434;28;20038;-85
2022/05/22 01:37:51;;;;;;;13.80;5.57;;;;;;;12.40;81.55;101693.91;4998720;28;20038;-85
2022/05/22 01:40:18;;;;;;;15.07;5.85;;;;;;;12.45;82.39;101702.28;4998726;28;20417;-86
2022/05/22 01:42:44;;;;;;;15.93;6.50;;;;;;;12.41;82.53;101697.44;5015966;28;20022;-85
2022/05/22 01:45:12;;;;;;;10.68;5.68;;;;;;;12.27;82.36;101691.16;4999449;28;20037;-85
2022/05/22 01:47:41;;;;;;;11.13;5.60;;;;;;;12.12;82.66;101675.00;4999360;28;20112;-85
2022/05/22 01:50:07;;;;;;;13.38;5.72;;;;;;;12.14;83.52;101688.41;4998472;28;20029;-85
2022/05/22 01:52:33;;;;;;;14.80;5.63;;;;;;;12.06;83.36;101689.41;4998476;28;20042;-85
2022/05/22 01:54:59;;;;;;;16.35;6.20;;;;;;;11.95;84.12;101671.81;4981853;28;20129;-85
2022/05/22 01:57:29;;;;;;;13.77;5.67;;;;;;;11.88;84.22;101684.50;4998371;28;20466;-85
2022/05/22 01:59:55;;;;;;;13.05;5.63;;;;;;;11.80;85.20;101687.44;5016285;28;20026;-85
2022/05/22 02:02:21;;;;;;;14.18;5.97;;;;;;;11.81;85.48;101702.69;4997882;28;20026;-85
2022/05/22 02:04:47;;;;;;;15.47;5.97;;;;;;;11.74;85.51;101691.78;4981731;28;20069;-85
2022/05/22 02:09:59;;;;;;;14.32;5.65;;;;;;;11.53;85.26;101677.28;5015620;28;20104;-85
2022/05/22 02:12:25;;;;;;;13.00;5.33;;;;;;;11.53;85.67;101674.56;4997611;28;20474;-85
2022/05/22 02:14:51;;;;;;;16.98;6.15;;;;;;;11.56;85.61;101692.34;5015630;28;20037;-86
2022/05/22 02:17:20;;;;;;;19.30;6.50;;;;;;;11.52;85.97;101682.91;4997894;28;20030;-85
2022/05/22 02:19:45;;;;;;;17.40;6.72;;;;;;;11.43;86.10;101674.06;5015298;28;20042;-86
2022/05/22 02:22:13;;;;;;;14.70;6.33;;;;;;;11.39;86.40;101678.22;4981970;28;20034;-85
2022/05/22 02:24:38;;;;;;;17.42;7.22;;;;;;;11.27;87.37;101663.53;4981588;28;20037;-85
2022/05/22 02:27:08;;;;;;;16.70;6.13;;;;;;;11.15;88.05;101657.84;4998040;28;20048;-85
2022/05/22 02:29:36;;;;;;;15.05;6.68;;;;;;;11.18;88.98;101671.00;4982258;28;20026;-86
2022/05/22 02:32:03;;;;;;;15.15;6.68;;;;;;;11.05;89.81;101648.13;5014971;28;20432;-85
2022/05/22 02:34:29;;;;;;;12.83;5.90;;;;;;;11.14;89.88;101667.00;4981319;28;20058;-86
2022/05/22 02:37:02;;;;;;;12.80;6.32;;;;;;;11.02;89.95;101645.00;4997843;28;20481;-85
2022/05/22 02:39:28;;;;;;;19.17;6.80;;;;;;;11.01;90.75;101649.59;4997648;28;20030;-85
2022/05/22 02:41:53;;;;;;;17.95;7.47;;;;;;;11.01;90.61;101652.31;4997779;28;20073;-85
2022/05/22 02:44:18;;;;;;;17.90;6.83;;;;;;;10.88;90.25;101633.22;4981336;28;20068;-86
2022/05/22 02:46:46;;;;;;;19.37;6.80;;;;;;;10.81;91.21;101630.44;5014793;28;20029;-85
2022/05/22 02:49:12;;;;;;;15.63;6.80;;;;;;;10.83;92.32;101632.97;4997670;28;20095;-85
2022/05/22 02:51:40;;;;;;;16.43;6.87;;;;;;;10.79;92.27;101631.66;4997424;28;20052;-85
2022/05/22 02:54:06;;;;;;;15.93;6.90;;;;;;;10.76;92.88;101632.91;4997895;28;20045;-85
2022/05/22 02:56:31;;;;;;;15.87;7.00;;;;;;;10.87;93.02;101647.81;4997224;28;20381;-85
2022/05/22 02:58:58;;;;;;;16.50;7.30;;;;;;;10.82;92.88;101645.69;4997140;28;20382;-85
2022/05/22 03:01:23;;;;;;;16.08;6.80;;;;;;;10.85;92.84;101648.03;4997098;28;20037;-85
2022/05/22 03:03:50;;;;;;;12.55;6.90;;;;;;;10.88;92.77;101642.19;5014527;28;20030;-85
2022/05/22 03:08:59;;;;;;;17.45;6.90;;;;;;;10.95;92.82;101653.09;5014462;28;20096;-85
2022/05/22 03:11:28;;;;;;;16.83;7.10;;;;;;;10.93;92.27;101640.75;4964826;28;20424;-85
2022/05/22 03:13:53;;;;;;;14.93;6.55;;;;;;;10.86;91.64;101635.28;5014606;28;20063;-85
2022/05/22 03:16:19;;;;;;;16.80;6.80;;;;;;;10.82;91.58;101643.00;4997229;28;20056;-86
2022/05/22 03:18:47;;;;;;;16.73;6.83;;;;;;;10.81;92.15;101638.59;4980648;28;20034;-85
2022/05/22 03:21:13;;;;;;;13.25;6.53;;;;;;;10.80;91.92;101646.94;4997017;28;20045;-85
2022/05/22 03:23:39;;;;;;;13.63;6.82;;;;;;;10.80;91.91;101642.34;4980744;28;20030;-85
2022/05/22 03:26:05;;;;;;;14.90;6.97;;;;;;;10.77;92.44;101615.59;5014482;28;20167;-85
2022/05/22 03:28:30;;;;;;;17.17;7.15;;;;;;;10.85;93.45;101612.72;4996598;28;20120;-85
2022/05/22 03:30:56;;;;;;;17.07;6.93;;;;;;;10.94;92.92;101618.84;4996621;28;20034;-86
2022/05/22 03:33:24;;;;;;;15.77;7.80;;;;;;;10.93;92.96;101616.34;4980182;28;20065;-85
2022/05/22 03:35:49;;;;;;;15.48;6.65;;;;;;;10.93;91.82;101611.72;4996519;28;20022;-85
2022/05/22 03:38:15;;;;;;;17.93;7.00;;;;;;;10.87;91.23;101607.09;4996819;28;20030;-85
2022/05/22 03:40:47;;;;;;;13.68;6.95;;;;;;;10.80;90.98;101606.22;4996448;28;20478;-85
2022/05/22 03:43:17;;;;;;;15.40;6.50;;;;;;;10.70;91.01;101601.97;4996875;28;20057;-85
2022/05/22 03:45:43;;;;;;;9.73;6.60;;;;;;;10.67;91.33;101598.81;4996715;28;20362;-86
2022/05/22 03:48:09;;;;;;;12.45;6.45;;;;;;;10.75;91.31;101608.66;4996267;28;20042;-85
2022/05/22 03:50:38;;;;;;;11.80;6.40;;;;;;;10.63;91.92;101592.09;4996353;28;20026;-85
2022/05/22 03:53:04;;;;;;;13.67;7.03;;;;;;;10.71;91.73;101602.81;4996110;28;20289;-86
2022/05/22 03:55:30;;;;;;;14.82;6.90;;;;;;;10.63;91.54;101601.09;4996770;28;20036;-85
2022/05/22 03:57:55;;;;;;;15.70;7.37;;;;;;;10.64;91.90;101602.75;4996313;28;20121;-86
2022/05/22 04:00:23;;;;;;;16.00;7.60;;;;;;;10.51;92.00;101594.50;4995964;28;20338;-85
2022/05/22 04:02:49;;;;;;;12.27;7.13;;;;;;;10.55;91.81;101606.66;4997054;28;20026;-85
2022/05/22 04:05:18;;;;;;;13.93;6.93;;;;;;;10.52;91.80;101613.31;5013575;28;20040;-85
2022/05/22 04:07:45;;;;;;;17.08;7.07;;;;;;;10.59;91.68;101620.69;4996257;28;20034;-85
2022/05/22 04:10:15;;;;;;;20.00;7.60;;;;;;;10.64;91.49;101607.34;5029726;28;20056;-86
2022/05/22 04:12:42;;;;;;;18.85;7.35;;;;;;;10.66;91.30;101603.41;4997006;28;20046;-85
2022/05/22 04:15:09;;;;;;;16.25;7.47;;;;;;;10.81;91.05;101613.31;4995849;28;20022;-85
2022/05/22 04:17:35;;;;;;;14.27;7.17;;;;;;;10.86;90.74;101599.97;4996171;28;20033;-85
2022/05/22 04:20:01;;;;;;;14.73;7.43;;;;;;;10.97;90.33;101604.88;4996128;28;20039;-85
2022/05/22 04:22:29;;;;;;;16.73;7.67;;;;;;;11.00;90.03;101603.63;4996144;28;20033;-85
2022/05/22 04:25:15;;;;;;;15.05;7.65;;;;;;;11.14;90.00;101612.69;5013486;28;20045;-85
2022/05/22 04:27:45;;;;;;;14.27;7.43;;;;;;;11.22;89.51;101609.81;4995903;28;20030;-86
2022/05/22 04:30:18;;;;;;;13.65;8.43;;;;;;;11.21;89.84;101608.13;4996028;28;20034;-86
2022/05/22 04:32:48;;;;;;;15.02;8.07;;;;;;;11.13;89.35;101589.28;4996763;28;20069;-85
2022/05/22 04:35:15;;;;;;;17.00;8.07;;;;;;;11.14;89.54;101597.22;4999007;28;20202;-86
2022/05/22 04:37:40;;;;;;;15.73;7.95;;;;;;;11.19;89.59;101602.91;4999855;28;20037;-85
2022/05/22 04:40:10;;;;;;;13.25;8.13;;;;;;;11.26;89.52;101611.06;4983660;28;20034;-86
2022/05/22 04:42:38;;;;;;;15.47;8.53;;;;;;;11.27;90.00;101610.03;4999686;28;20196;-85
2022/05/22 04:45:08;;;;;;;13.60;8.63;;;;;;;11.29;89.49;101610.66;5017273;28;20037;-85
2022/05/22 04:47:36;;;;;;;15.60;8.80;;;;;;;11.24;88.97;101602.28;4999399;28;20225;-85
2022/05/22 04:50:05;;;;;;;15.18;9.00;;;;;;;11.37;88.52;101617.84;4999565;28;20030;-85
2022/05/22 04:52:32;;;;;;;18.98;9.38;;;;;;;11.42;88.62;101604.47;5017137;28;20036;-86
2022/05/22 04:55:00;;;;;;;12.50;8.67;;;;;;;11.46;88.39;101615.78;5017342;28;20026;-85
2022/05/22 04:57:25;;;;;;;18.13;8.93;;;;;;;11.46;88.32;101607.63;4999160;28;20052;-85
2022/05/22 04:59:53;;;;;;;17.13;9.27;;;;;;;11.44;88.14;101598.81;4999441;28;20057;-85
2022/05/22 05:02:18;;;;;;;20.27;9.70;;;;;;;11.45;88.47;101584.19;4983458;28;20454;-85
2022/05/22 05:04:54;;;;;;;19.02;9.10;;;;;;;11.55;88.07;101595.53;4982675;28;20124;-86
2022/05/22 05:07:24;;;;;;;19.42;9.55;;;;;;;11.53;87.54;101589.44;4999234;28;20121;-86
2022/05/22 05:09:50;;;;;;;23.20;9.77;;;;;;;11.59;87.97;101597.63;4983140;28;20088;-85
2022/05/22 05:12:19;;;;;;;25.10;9.60;;;;;;;11.58;87.39;101584.25;4999702;28;20026;-86
2022/05/22 05:14:48;;;;;;;14.63;9.20;;;;;;;11.62;87.37;101590.97;4999017;28;20423;-85
2022/05/22 05:17:17;;;;;;;16.42;9.48;;;;;;;11.74;87.62;101593.91;5031907;28;20489;-86
2022/05/22 05:19:42;;;;;;;17.03;10.00;;;;;;;11.71;87.32;101589.72;5016639;28;20112;-85
2022/05/22 05:22:08;;;;;;;21.10;9.77;;;;;;;11.81;86.62;101583.03;4998676;28;20468;-85
2022/05/22 05:24:33;;;;;;;16.73;9.80;;;;;;;11.84;86.32;101594.38;4998897;28;20046;-85
2022/05/22 05:26:59;;;;;;;20.95;9.57;;;;;;;11.96;86.09;101593.78;4999246;28;20026;-85
2022/05/22 05:29:27;;;;;;;17.43;9.77;;;;;;;12.08;86.00;101600.31;4982655;28;20029;-85
2022/05/22 05:31:53;;;;;;;18.02;10.77;;;;;;;12.07;85.65;101590.47;5016092;28;20045;-85
2022/05/22 05:34:21;;;;;;;23.10;10.45;;;;;;;12.11;85.09;101597.16;4998311;28;20053;-85
2022/05/22 05:36:46;;;;;;;23.50;10.32;;;;;;;12.24;85.59;101601.78;4983206;28;20168;-85
2022/05/22 05:39:12;;;;;;;18.37;10.50;;;;;;;12.22;84.92;101595.69;4998452;28;20032;-85
2022/05/22 05:41:38;;;;;;;20.33;9.73;;;;;;;12.33;84.65;101605.13;4999399;28;20040;-85
2022/05/22 05:44:08;;;;;;;18.10;10.05;;;;;;;12.40;84.51;101600.50;5015918;28;20107;-86
2022/05/22 05:46:39;;;;;;;15.32;10.02;;;;;;;12.42;84.31;101602.00;4998536;28;20041;-85
2022/05/22 05:49:06;;;;;;;17.17;10.10;;;;;;;12.46;83.71;101594.25;4998532;28;20068;-83
2022/05/22 06:05:06;;;;;;;19.10;10.40;;;;;;;13.08;80.58;101599.38;4958251;28;20041;-90
2022/05/22 06:07:35;;;;;;;21.67;10.52;;;;;;;13.29;80.08;101611.91;4998632;28;20139;-89
2022/05/22 06:10:02;;;;;;;16.52;10.35;;;;;;;13.37;80.16;101602.69;4997871;28;20048;-90
2022/05/22 06:12:30;;;;;;;21.58;11.05;;;;;;;13.48;78.93;101604.75;4997855;28;20033;-89
2022/05/22 06:15:15;;;;;;;;;;;;;;;;;;;;;
2022/05/22 06:17:46;;;;;;;18.10;10.10;;;;;;;14.03;77.22;101610.50;5016075;28;20052;-88
2022/05/22 06:33:56;;;;;;;17.60;10.00;;;;;;;14.64;75.96;101607.34;4880805;29;20537;-92
2022/05/22 06:50:36;;;;;;;20.03;9.30;;;;;;;14.64;74.63;101627.31;4860366;29;20040;-91
2022/05/22 06:53:28;;;;;;;;;;;;;;;;;;;;;
2022/05/22 06:56:43;;;;;;;21.55;9.70;;;;;;;14.70;74.59;101611.91;4926002;29;20058;-92
2022/05/22 07:17:31;;;;;;;;;;;;;;;;;;;;;
2022/05/22 07:27:20;;;;;;;18.30;8.48;;;;;;;15.69;70.38;101598.16;4789454;29;20162;-92
2022/05/22 07:30:45;;;;;;;16.15;9.15;;;;;;;15.85;70.90;101598.63;4775616;29;20047;-92
2022/05/22 07:41:03;;;;;;;;;;;;;;;;;;;;;
2022/05/22 07:43:55;;;;;;;15.25;8.30;;;;;;;16.13;69.15;101587.88;4910596;29;20043;-90
2022/05/22 07:50:30;;;;;;;;;;;;;;;;;;;;;
2022/05/22 07:53:30;;;;;;;12.38;6.22;;;;;;;17.08;64.10;101598.91;4948487;28;20049;-92
2022/05/22 07:56:24;;;;;;;10.80;5.13;;;;;;;17.18;62.49;101588.19;4968699;28;20042;-90
2022/05/22 07:59:02;;;;;;;12.95;5.20;;;;;;;17.11;61.35;101572.91;4981659;28;20034;-90
2022/05/22 08:01:37;;;;;;;11.60;5.00;;;;;;;17.06;59.27;101561.84;4996421;28;20034;-90
2022/05/22 08:04:08;;;;;;;10.23;4.75;;;;;;;17.10;59.23;101583.06;4980301;28;20111;-90
2022/05/22 08:30:50;;;;;;;;;;;;;;;;;;;;;
2022/05/22 08:44:11;;;;;;;;;;;;;;;;;;;;;
2022/05/22 08:47:03;;;;;;;6.25;2.33;;;;;;;19.46;50.68;101500.06;4902718;29;20039;-91
2022/05/22 08:50:22;;;;;;;12.50;5.30;;;;;;;19.52;49.05;101501.75;4901573;29;20048;-90
2022/05/22 08:53:22;;;;;;;12.95;4.07;;;;;;;19.53;47.63;101499.81;4896396;29;20039;-90
2022/05/22 08:59:34;;;;;;;12.83;4.00;;;;;;;20.06;48.29;101500.88;4872904;28;20047;-91
2022/05/22 09:02:27;;;;;;;10.35;4.25;;;;;;;20.33;47.35;101497.25;5000473;28;20516;-91
2022/05/22 09:08:26;;;;;;;9.00;4.43;;;;;;;20.56;47.33;101473.13;5006372;28;20042;-91
2022/05/22 09:11:18;;;;;;;;;;;;;;;;;;;;;
2022/05/22 09:14:08;;;;;;;;;;;;;;;;;;;;;
2022/05/22 09:17:26;;;;;;;14.88;5.03;;;;;;;20.75;46.92;101470.75;5017511;28;20036;-93
2022/05/22 09:19:56;;;;;;;11.15;4.55;;;;;;;20.97;45.76;101471.38;5017317;28;20026;-88
2022/05/22 09:23:29;;;;;;;;;;;;;;;;;;;;;
2022/05/22 09:30:06;;;;;;;;;;;;;;;;;;;;;
2022/05/22 09:33:31;;;;;;;10.10;3.88;;;;;;;21.33;46.00;101452.19;5017062;28;20050;-91
2022/05/22 09:39:35;;;;;;;8.43;3.70;;;;;;;21.52;44.62;101463.53;4963159;28;20053;-90
2022/05/22 09:42:47;;;;;;;8.82;3.92;;;;;;;21.63;44.38;101461.63;5012124;28;20088;-91
2022/05/22 09:46:00;;;;;;;11.27;4.10;;;;;;;21.63;44.19;101439.53;4979135;28;20034;-91
2022/05/22 09:49:04;;;;;;;;;;;;;;;;;;;;;
2022/05/22 09:52:05;;;;;;;9.52;4.25;;;;;;;21.66;43.75;101446.47;4997288;28;20036;-91
2022/05/22 09:55:37;;;;;;;12.45;4.35;;;;;;;21.48;43.47;101437.56;5011837;28;20035;-90
2022/05/22 10:01:38;;;;;;;12.00;4.40;;;;;;;21.77;42.90;101453.63;4998053;28;20042;-91
2022/05/22 10:04:38;;;;;;;8.60;4.30;;;;;;;21.88;43.11;101460.00;5017145;28;20064;-91
2022/05/22 10:08:01;;;;;;;;;;;;;;;;;;;;;
2022/05/22 10:10:57;;;;;;;9.10;4.10;;;;;;;22.26;41.35;101435.59;4966317;28;20041;-91
2022/05/22 10:14:00;;;;;;;;;;;;;;;;;;;;;
2022/05/22 10:16:41;;;;;;;11.70;3.90;;;;;;;22.37;40.71;101437.28;4995919;28;20034;-90
2022/05/22 10:19:07;;;;;;;8.40;4.20;;;;;;;22.58;40.81;101442.72;5011472;28;20034;-91
2022/05/22 10:21:58;;;;;;;11.10;4.82;;;;;;;22.71;42.00;101420.00;5010781;28;20031;-91
2022/05/22 10:24:57;;;;;;;12.67;4.87;;;;;;;23.11;41.86;101420.09;4995854;28;20030;-90
2022/05/22 10:31:06;;;;;;;10.65;4.30;;;;;;;23.77;39.70;101426.22;4987953;28;20038;-91
2022/05/22 10:34:11;;;;;;;9.00;4.35;;;;;;;23.64;41.01;101414.72;4978325;28;20038;-91
2022/05/22 10:36:59;;;;;;;10.77;5.20;;;;;;;23.42;38.72;101414.34;5024348;28;20498;-91
2022/05/22 10:39:28;;;;;;;9.23;4.63;;;;;;;23.28;38.15;101406.69;4997750;28;20418;-91
2022/05/22 10:45:47;;;;;;;9.07;4.25;;;;;;;23.98;39.45;101388.94;5015373;28;20045;-91
2022/05/22 10:48:37;;;;;;;11.82;4.15;;;;;;;24.66;37.02;101398.16;5015696;28;20442;-91
2022/05/22 10:51:36;;;;;;;11.63;4.15;;;;;;;25.29;37.39;101379.50;5015233;28;20037;-91
2022/05/22 10:54:13;;;;;;;8.30;4.97;;;;;;;25.51;35.22;101383.59;4997191;28;20478;-91
2022/05/22 10:56:43;;;;;;;10.23;4.57;;;;;;;25.72;34.71;101376.56;4997895;28;20030;-92
2022/05/22 10:59:20;;;;;;;12.50;4.60;;;;;;;26.24;34.92;101375.63;4997378;28;20033;-84
2022/05/22 11:02:00;;;;;;;15.88;5.53;;;;;;;26.70;34.43;101366.31;4996969;28;20037;-85
2022/05/22 11:04:43;;;;;;;11.10;4.82;;;;;;;27.17;34.22;101371.63;4997726;28;20026;-85
2022/05/22 11:07:11;;;;;;;10.90;5.77;;;;;;;27.46;31.21;101375.94;5014735;28;20034;-85
2022/05/22 11:09:49;;;;;;;10.38;5.35;;;;;;;27.97;32.56;101376.59;4997022;28;20038;-85
2022/05/22 11:12:26;;;;;;;9.00;4.95;;;;;;;28.16;31.95;101371.59;4996551;28;20111;-83
2022/05/22 11:15:08;;;;;;;9.35;5.25;;;;;;;27.91;31.77;101364.75;4996865;28;20121;-83
2022/05/22 11:17:33;;;;;;;8.25;4.43;;;;;;;27.53;30.40;101359.63;4996786;28;20030;-83
2022/05/22 11:20:17;;;;;;;11.03;4.93;;;;;;;27.21;30.93;101346.75;4996832;28;20036;-82
2022/05/22 11:23:20;;;;;;;10.35;4.80;;;;;;;27.36;32.89;101360.34;5014661;28;20033;-82
2022/05/22 11:26:05;;;;;;;8.75;4.55;;;;;;;30.89;28.98;101348.38;4997321;28;20034;-83
2022/05/22 11:28:53;;;;;;;10.57;4.30;;;;;;;33.91;23.55;101333.84;4996627;28;20033;-83
2022/05/22 11:31:50;;;;;;;11.63;4.50;;;;;;;37.11;22.71;101332.47;4996530;28;20466;-85
2022/05/22 11:34:45;;;;;;;13.77;4.80;;;;;;;39.30;20.62;101304.81;5014181;28;20026;-85
2022/05/22 11:37:27;;;;;;;9.90;4.55;;;;;;;40.66;18.29;101305.91;4987256;28;20058;-85
2022/05/22 11:40:33;;;;;;;8.20;4.28;;;;;;;42.06;17.05;101302.09;4976844;28;20038;-86
2022/05/22 11:43:11;;;;;;;9.23;3.97;;;;;;;43.70;16.31;101290.06;4976416;28;20033;-86
2022/05/22 11:46:04;;;;;;;9.48;4.72;;;;;;;44.11;13.64;101283.19;4994421;28;20084;-86
2022/05/22 11:48:41;;;;;;;10.70;5.43;;;;;;;43.23;14.24;101270.84;4994579;28;20533;-85
2022/05/22 11:51:22;;;;;;;9.35;5.10;;;;;;;43.94;15.14;101282.28;4994197;28;20030;-85
2022/05/22 11:54:18;;;;;;;8.02;4.72;;;;;;;44.97;14.70;101274.84;4977366;28;20129;-86
2022/05/22 11:57:06;;;;;;;10.43;5.17;;;;;;;46.02;13.90;101261.56;4976579;28;20029;-86
2022/05/22 12:00:03;;;;;;;8.43;5.72;;;;;;;46.55;13.47;101262.06;4994790;28;20045;-86
2022/05/22 12:03:26;;;;;;;7.07;5.50;;;;;;;47.77;13.63;101242.09;4977309;28;20026;-86
2022/05/22 12:06:09;;;;;;;9.23;6.00;;;;;;;47.56;11.50;101226.41;4934089;29;20055;-86
2022/05/22 12:08:59;;;;;;;12.70;6.78;;;;;;;47.95;10.85;101219.22;4918146;29;20481;-86
2022/05/22 12:11:45;;;;;;;9.07;6.23;;;;;;;47.53;11.34;101210.06;4969977;28;20038;-86
2022/05/22 12:14:26;;;;;;;11.18;6.78;;;;;;;47.48;11.97;101207.81;4976654;28;20034;-86
2022/05/22 12:17:05;;;;;;;8.20;6.75;;;;;;;48.05;10.55;101202.81;4994110;28;20037;-86
2022/05/22 12:20:09;;;;;;;10.27;7.25;;;;;;;48.90;11.07;101202.00;4977206;28;20121;-86
2022/05/22 12:25:35;;;;;;;16.53;7.73;;;;;;;48.21;9.53;101187.47;4994691;28;20129;-86
2022/05/22 12:28:17;;;;;;;15.57;7.22;;;;;;;48.98;9.80;101195.44;4977032;28;20466;-86
2022/05/22 12:30:48;;;;;;;9.25;7.00;;;;;;;49.62;9.71;101181.63;4976825;28;20462;-85
2022/05/22 12:33:17;;;;;;;10.40;7.28;;;;;;;50.02;9.17;101186.38;4993760;28;20030;-84
2022/05/22 12:35:43;;;;;;;10.70;6.68;;;;;;;49.97;8.10;101161.09;4994277;28;20037;-84
2022/05/22 12:38:14;;;;;;;10.40;6.77;;;;;;;49.98;8.68;101162.66;5010395;28;20053;-84
2022/05/22 12:41:10;;;;;;;11.00;7.60;;;;;;;50.48;9.51;101165.22;5013787;28;20041;-84
2022/05/22 12:43:37;;;;;;;11.52;7.18;;;;;;;50.61;7.87;101148.50;4996073;28;20037;-85
2022/05/22 12:46:10;;;;;;;11.93;7.38;;;;;;;50.02;8.85;101152.56;5013316;28;20034;-85
2022/05/22 12:48:43;;;;;;;11.77;7.70;;;;;;;49.65;8.44;101155.50;5014041;28;20529;-85
2022/05/22 12:51:19;;;;;;;7.53;6.67;;;;;;;50.31;8.75;101167.72;4995785;28;20041;-84
2022/05/22 12:53:51;;;;;;;9.45;7.20;;;;;;;50.57;8.81;101156.50;4995689;28;20022;-85
2022/05/22 12:56:20;;;;;;;9.88;7.53;;;;;;;50.98;7.85;101154.06;4999560;28;20110;-84
2022/05/22 12:58:52;;;;;;;8.82;7.47;;;;;;;51.54;7.96;101145.72;4999314;28;20473;-84
2022/05/22 13:01:23;;;;;;;11.07;8.35;;;;;;;51.56;7.96;101140.25;5017305;28;20105;-90
2022/05/22 13:03:52;;;;;;;10.60;7.63;;;;;;;51.09;8.19;101141.13;4998911;28;20038;-85
2022/05/22 13:06:21;;;;;;;9.73;8.07;;;;;;;51.56;7.59;101131.59;4999410;28;20022;-84
2022/05/22 13:09:00;;;;;;;9.57;8.45;;;;;;;51.44;8.69;101126.88;4999979;28;20128;-84
2022/05/22 13:11:43;;;;;;;9.40;7.78;;;;;;;51.59;7.95;101119.03;5017125;28;20478;-84
2022/05/22 13:14:28;;;;;;;11.48;8.75;;;;;;;52.21;7.80;101115.63;4999754;28;20030;-85
2022/05/22 13:16:54;;;;;;;11.77;9.07;;;;;;;51.39;7.49;101098.69;4999418;28;20037;-86
2022/05/22 13:19:24;;;;;;;9.20;8.30;;;;;;;51.31;7.41;101104.06;5016389;28;20030;-84
2022/05/22 13:22:09;;;;;;;11.80;8.02;;;;;;;50.92;8.49;101106.91;4998737;28;20022;-84
2022/05/22 13:24:44;;;;;;;9.93;7.95;;;;;;;50.55;8.44;101104.25;4999509;28;20061;-85
2022/05/22 13:27:25;;;;;;;10.98;8.00;;;;;;;50.95;8.92;101108.03;4983920;28;20036;-85
2022/05/22 13:30:05;;;;;;;9.30;7.97;;;;;;;51.34;8.00;101088.63;4999060;28;20045;-84
2022/05/22 13:32:46;;;;;;;9.10;8.18;;;;;;;51.85;8.13;101082.94;4999005;28;20030;-84
2022/05/22 13:35:23;;;;;;;9.90;8.13;;;;;;;51.53;7.66;101097.91;4999155;28;20037;-84
2022/05/22 13:37:51;;;;;;;8.63;7.75;;;;;;;50.97;7.41;101094.72;5015863;28;20072;-85
2022/05/22 13:40:52;;;;;;;8.75;7.85;;;;;;;51.84;8.31;101092.91;4999251;28;20025;-84
2022/05/22 13:43:24;;;;;;;9.70;7.37;;;;;;;51.71;7.35;101081.69;4998506;28;20041;-84
2022/05/22 13:46:11;;;;;;;9.98;7.80;;;;;;;51.89;7.15;101081.44;4998441;28;20022;-84
2022/05/22 13:48:44;;;;;;;8.55;7.70;;;;;;;52.05;7.06;101071.47;4998777;28;20065;-84
2022/05/22 13:54:25;;;;;;;9.15;7.90;;;;;;;51.65;7.56;101067.13;5016391;28;20088;-84
2022/05/22 13:57:03;;;;;;;10.07;8.00;;;;;;;51.90;7.69;101057.00;5016086;28;20057;-84
2022/05/22 13:59:32;;;;;;;10.98;7.60;;;;;;;51.75;6.79;101047.56;4998468;28;20110;-84
2022/05/22 14:02:12;;;;;;;8.52;7.63;;;;;;;52.10;7.49;101047.59;4997842;28;20045;-85
2022/05/22 14:04:45;;;;;;;11.05;8.82;;;;;;;52.14;7.21;101043.69;4998383;28;20061;-85
2022/05/22 14:07:51;;;;;;;9.80;7.70;;;;;;;52.77;7.68;101040.38;4998459;28;20029;-85
2022/05/22 14:10:34;;;;;;;9.40;7.80;;;;;;;52.59;7.44;101041.44;5030997;28;20414;-85
2022/05/22 14:13:14;;;;;;;10.25;7.57;;;;;;;52.19;7.69;101031.41;5015456;28;20473;-84
2022/05/22 14:15:46;;;;;;;11.00;8.90;;;;;;;51.61;7.01;101026.03;5015637;28;20022;-85
2022/05/22 14:18:19;;;;;;;9.57;8.02;;;;;;;51.31;7.95;101031.84;4997656;28;20036;-84
2022/05/22 14:20:47;;;;;;;9.90;8.93;;;;;;;51.01;7.80;101025.97;4998051;28;20462;-84
2022/05/22 14:23:23;;;;;;;10.80;8.17;;;;;;;51.41;8.18;101018.88;5015477;28;20037;-85
2022/05/22 14:26:15;;;;;;;10.88;8.85;;;;;;;52.12;8.32;101021.06;4998173;28;20052;-85
2022/05/22 14:28:46;;;;;;;14.38;8.52;;;;;;;51.34;7.41;101010.59;4994063;28;20037;-85
2022/05/22 14:31:17;;;;;;;9.10;8.15;;;;;;;50.70;7.97;101012.78;4998005;28;20117;-84
2022/05/22 14:33:43;;;;;;;11.68;8.18;;;;;;;50.70;7.21;101004.13;5015171;28;20109;-84
2022/05/22 14:36:13;;;;;;;9.10;7.70;;;;;;;50.23;7.79;100999.91;5013877;28;20068;-84
2022/05/22 14:38:45;;;;;;;9.10;7.45;;;;;;;50.42;8.35;101006.38;4998150;28;20045;-84
2022/05/22 14:41:15;;;;;;;11.02;7.72;;;;;;;50.02;8.09;101002.59;4997518;28;20056;-84
2022/05/22 14:43:57;;;;;;;10.48;7.90;;;;;;;50.40;7.66;100999.53;4997481;28;20478;-84
2022/05/22 14:46:49;;;;;;;9.63;7.78;;;;;;;50.64;8.27;100991.63;4997457;28;20026;-84
2022/05/22 14:49:24;;;;;;;10.37;6.90;;;;;;;50.42;8.31;100997.72;4997670;28;20060;-84
2022/05/22 14:51:57;;;;;;;12.70;8.15;;;;;;;49.95;7.68;100987.72;5014665;28;20482;-84